Big Pine Key, FL (33043)

4:10 PM EDT on August 22, 2014 (GMT -0400)
Breezeswept Estates - Bird Lake - Ramrod | Change Station
CLOSE
Current Station
Personal Weather Station
Location: Ramrod Key, FL
Elevation: 25 ft
Nearby Weather Stations

Elev 25 ft 24.65 °N, 81.41 °W | Updated 6 seconds ago

Clear
Clear
89.6 °F
Feels Like 99 °F
N
7.7
Wind Variable Wind from East
Gusts 11.4 mph

Today
High -- | Low -- °F
--% Chance of Precip.
Yesterday
High -- | Low -- °F
Precip. -- in
7:02 AM 7:53 PM
Waning Crescent, 7% visible
Pressure 30.00 in
Visibility 10.0 miles
Clouds Few 3300 ft
Few 25000 ft
Heat Index 99 °F
Dew Point 74 °F
Humidity 60%
Rainfall 0.12 in
Snow Depth Not available.
UV 10 out of 12
Pollen 5.50 out of 12
Air Quality Not available.
Flu Activity Not available.
METAR KNQX 221953Z 11006KT 10SM FEW033 FEW250 33/22 A3000 RMK AO2 SLP159 T2 SET T03280217 $

More Conditions Fewer Conditions

Pressure 30.00 in
Visibility 10.0 miles
Clouds Few 3300 ft
Few 25000 ft
Heat Index 99 °F
Dew Point 74 °F
Humidity 60%
Rainfall 0.12 in
Snow Depth Not available.
UV 10 out of 12
Pollen 5.50 out of 12
Air Quality Not available.
Flu Activity Not available.
METAR KNQX 221953Z 11006KT 10SM FEW033 FEW250 33/22 A3000 RMK AO2 SLP159 T2 SET T03280217 $

More Conditions Fewer Conditions

Nowcast | as of 2:30 PM EDT on August 22, 2014

Through 400 PM...isolated showers and thunderstorms will be found across the southeastern Gulf waters surrounding the Tortugas...and also across the Florida Straits near the cay sal bank. Individual cells will move to the west at 10 to 15 knots...while larger clusters will remain nearly stationary. The stronger marine cells will produce winds gusts of 25 to 30 knots...frequent lightning strikes...and heavy downpours.

×

10-Day Weather Forecast

Almanac

Astronomy

Aug. 22, 2014 Rise Set
Actual Time 7:02 AM EDT 7:53 PM EDT
Civil Twilight 6:39 AM EDT 8:16 PM EDT
Nautical Twilight 6:11 AM EDT 8:44 PM EDT
Astronomical Twilight 5:43 AM EDT 9:12 PM EDT
Moon 4:31 AM EDT 5:55 PM EDT
Length of Visible Light 13h 37m
Length of Day
12h 50m
Tomorrow will be 1m 19s shorter.
Waning Crescent, 7% of the Moon is Illuminated
Today
Waning Crescent
Aug 25
New
Sep 2
First Quarter
Sep 8
Full
Sep 15
Last Quarter

Today's Extremes

State Highs State Lows

Community

WunderPhotos

Upload Photos

1,746,239 photos uploaded!

Nearby

Snow Depth

Station Depth Elevation
No new snow has been reported.

Earthquake Activity

City Distance Mag. Time & Date
No recent earthquake activity has been reported nearby.
Minimum magnitude displayed is 2.5.

Coastal Water Temperatures

Place Temperature
Key West, FL 88.0 °F
Vaca Key, FL 91.0 °F

Nearby Weather Stations